sensor_id;sensor_type;location;lat;lon;timestamp;P1;durP1;ratioP1;P2;durP2;ratioP2
10216;SDS011;5152;59.674;16.838;2023-11-21T00:01:17;11.80;;;5.60;;
10216;SDS011;5152;59.674;16.838;2023-11-21T00:03:44;7.40;;;4.40;;
10216;SDS011;5152;59.674;16.838;2023-11-21T00:06:11;9.17;;;4.97;;
10216;SDS011;5152;59.674;16.838;2023-11-21T00:08:39;7.07;;;4.83;;
10216;SDS011;5152;59.674;16.838;2023-11-21T00:11:06;7.13;;;4.43;;
10216;SDS011;5152;59.674;16.838;2023-11-21T00:13:33;9.53;;;5.20;;
10216;SDS011;5152;59.674;16.838;2023-11-21T00:16:00;11.73;;;6.97;;
10216;SDS011;5152;59.674;16.838;2023-11-21T00:18:27;26.17;;;16.43;;
10216;SDS011;5152;59.674;16.838;2023-11-21T00:20:54;40.83;;;26.50;;
10216;SDS011;5152;59.674;16.838;2023-11-21T00:23:20;32.53;;;18.20;;
10216;SDS011;5152;59.674;16.838;2023-11-21T00:25:49;36.93;;;23.03;;
10216;SDS011;5152;59.674;16.838;2023-11-21T00:28:15;48.30;;;29.33;;
10216;SDS011;5152;59.674;16.838;2023-11-21T00:30:42;30.60;;;20.00;;
10216;SDS011;5152;59.674;16.838;2023-11-21T00:33:10;9.53;;;6.73;;
10216;SDS011;5152;59.674;16.838;2023-11-21T00:35:36;10.03;;;5.37;;
10216;SDS011;5152;59.674;16.838;2023-11-21T00:38:03;10.50;;;4.73;;
10216;SDS011;5152;59.674;16.838;2023-11-21T00:40:30;7.80;;;5.27;;
10216;SDS011;5152;59.674;16.838;2023-11-21T00:42:58;9.23;;;5.80;;
10216;SDS011;5152;59.674;16.838;2023-11-21T00:45:26;7.40;;;4.87;;
10216;SDS011;5152;59.674;16.838;2023-11-21T00:47:52;8.87;;;6.13;;
10216;SDS011;5152;59.674;16.838;2023-11-21T00:50:20;15.07;;;6.83;;
10216;SDS011;5152;59.674;16.838;2023-11-21T00:52:48;10.10;;;7.27;;
10216;SDS011;5152;59.674;16.838;2023-11-21T00:55:16;7.23;;;5.33;;
10216;SDS011;5152;59.674;16.838;2023-11-21T00:57:43;17.20;;;11.33;;
10216;SDS011;5152;59.674;16.838;2023-11-21T01:00:12;11.80;;;6.60;;
10216;SDS011;5152;59.674;16.838;2023-11-21T01:02:42;9.50;;;6.63;;
10216;SDS011;5152;59.674;16.838;2023-11-21T01:05:09;9.97;;;6.07;;
10216;SDS011;5152;59.674;16.838;2023-11-21T01:07:36;6.07;;;5.10;;
10216;SDS011;5152;59.674;16.838;2023-11-21T01:10:03;6.43;;;4.20;;
10216;SDS011;5152;59.674;16.838;2023-11-21T01:12:32;5.60;;;3.63;;
10216;SDS011;5152;59.674;16.838;2023-11-21T01:14:59;8.57;;;5.70;;
10216;SDS011;5152;59.674;16.838;2023-11-21T01:17:27;6.03;;;4.77;;
10216;SDS011;5152;59.674;16.838;2023-11-21T01:19:54;5.47;;;3.70;;
10216;SDS011;5152;59.674;16.838;2023-11-21T01:22:22;5.27;;;4.00;;
10216;SDS011;5152;59.674;16.838;2023-11-21T01:24:51;7.10;;;5.07;;
10216;SDS011;5152;59.674;16.838;2023-11-21T01:27:18;5.17;;;4.30;;
10216;SDS011;5152;59.674;16.838;2023-11-21T01:29:45;7.17;;;5.00;;
10216;SDS011;5152;59.674;16.838;2023-11-21T01:32:12;5.70;;;3.73;;
10216;SDS011;5152;59.674;16.838;2023-11-21T01:34:40;8.50;;;5.57;;
10216;SDS011;5152;59.674;16.838;2023-11-21T01:37:07;7.17;;;5.40;;
10216;SDS011;5152;59.674;16.838;2023-11-21T01:39:37;8.47;;;5.70;;
10216;SDS011;5152;59.674;16.838;2023-11-21T01:42:04;8.33;;;4.83;;
10216;SDS011;5152;59.674;16.838;2023-11-21T01:44:33;5.63;;;4.47;;
10216;SDS011;5152;59.674;16.838;2023-11-21T01:46:59;6.27;;;4.80;;
10216;SDS011;5152;59.674;16.838;2023-11-21T01:49:30;6.37;;;5.13;;
10216;SDS011;5152;59.674;16.838;2023-11-21T01:51:58;9.10;;;6.17;;
10216;SDS011;5152;59.674;16.838;2023-11-21T01:54:25;8.80;;;5.70;;
10216;SDS011;5152;59.674;16.838;2023-11-21T01:56:52;9.27;;;5.37;;
10216;SDS011;5152;59.674;16.838;2023-11-21T01:59:19;17.77;;;10.20;;
10216;SDS011;5152;59.674;16.838;2023-11-21T02:01:47;15.33;;;9.97;;
10216;SDS011;5152;59.674;16.838;2023-11-21T02:04:15;23.90;;;13.43;;
10216;SDS011;5152;59.674;16.838;2023-11-21T02:06:42;10.90;;;6.67;;
10216;SDS011;5152;59.674;16.838;2023-11-21T02:09:11;12.07;;;8.53;;
10216;SDS011;5152;59.674;16.838;2023-11-21T02:11:40;15.73;;;9.03;;
10216;SDS011;5152;59.674;16.838;2023-11-21T02:14:07;19.70;;;12.00;;
10216;SDS011;5152;59.674;16.838;2023-11-21T02:16:34;17.17;;;11.27;;
10216;SDS011;5152;59.674;16.838;2023-11-21T02:19:01;13.03;;;7.90;;
10216;SDS011;5152;59.674;16.838;2023-11-21T02:21:29;5.17;;;3.97;;
10216;SDS011;5152;59.674;16.838;2023-11-21T02:23:58;9.17;;;4.80;;
10216;SDS011;5152;59.674;16.838;2023-11-21T02:26:25;7.47;;;4.73;;
10216;SDS011;5152;59.674;16.838;2023-11-21T02:28:52;3.77;;;3.33;;
10216;SDS011;5152;59.674;16.838;2023-11-21T02:31:19;5.03;;;3.27;;
10216;SDS011;5152;59.674;16.838;2023-11-21T02:33:48;10.23;;;5.73;;
10216;SDS011;5152;59.674;16.838;2023-11-21T02:36:15;10.30;;;6.63;;
10216;SDS011;5152;59.674;16.838;2023-11-21T02:38:42;6.90;;;4.93;;
10216;SDS011;5152;59.674;16.838;2023-11-21T02:41:10;8.23;;;4.93;;
10216;SDS011;5152;59.674;16.838;2023-11-21T02:43:38;23.23;;;13.30;;
10216;SDS011;5152;59.674;16.838;2023-11-21T02:46:05;20.47;;;12.93;;
10216;SDS011;5152;59.674;16.838;2023-11-21T02:48:32;10.63;;;6.23;;
10216;SDS011;5152;59.674;16.838;2023-11-21T02:50:59;6.50;;;4.53;;
10216;SDS011;5152;59.674;16.838;2023-11-21T02:53:25;9.97;;;6.47;;
10216;SDS011;5152;59.674;16.838;2023-11-21T02:55:52;8.80;;;5.70;;
10216;SDS011;5152;59.674;16.838;2023-11-21T02:58:20;5.10;;;3.70;;
10216;SDS011;5152;59.674;16.838;2023-11-21T03:00:47;3.93;;;2.90;;
10216;SDS011;5152;59.674;16.838;2023-11-21T03:03:14;6.00;;;3.60;;
10216;SDS011;5152;59.674;16.838;2023-11-21T03:05:41;7.50;;;4.30;;
10216;SDS011;5152;59.674;16.838;2023-11-21T03:08:08;7.27;;;4.73;;
10216;SDS011;5152;59.674;16.838;2023-11-21T03:10:35;23.83;;;14.63;;
10216;SDS011;5152;59.674;16.838;2023-11-21T03:13:02;25.37;;;14.67;;
10216;SDS011;5152;59.674;16.838;2023-11-21T03:15:30;24.60;;;15.70;;
10216;SDS011;5152;59.674;16.838;2023-11-21T03:17:57;35.63;;;22.47;;
10216;SDS011;5152;59.674;16.838;2023-11-21T03:20:25;55.03;;;32.60;;
10216;SDS011;5152;59.674;16.838;2023-11-21T03:22:51;27.13;;;15.63;;
10216;SDS011;5152;59.674;16.838;2023-11-21T03:25:18;34.53;;;20.70;;
10216;SDS011;5152;59.674;16.838;2023-11-21T03:27:45;32.70;;;20.87;;
10216;SDS011;5152;59.674;16.838;2023-11-21T03:30:12;13.33;;;8.80;;
10216;SDS011;5152;59.674;16.838;2023-11-21T03:32:40;11.43;;;6.57;;
10216;SDS011;5152;59.674;16.838;2023-11-21T03:35:07;6.73;;;4.57;;
10216;SDS011;5152;59.674;16.838;2023-11-21T03:37:34;6.17;;;3.37;;
10216;SDS011;5152;59.674;16.838;2023-11-21T03:40:03;6.70;;;4.30;;
10216;SDS011;5152;59.674;16.838;2023-11-21T03:42:33;13.97;;;8.73;;
10216;SDS011;5152;59.674;16.838;2023-11-21T03:45:00;35.47;;;18.17;;
10216;SDS011;5152;59.674;16.838;2023-11-21T03:47:28;17.17;;;10.07;;
10216;SDS011;5152;59.674;16.838;2023-11-21T03:49:56;14.60;;;9.87;;
10216;SDS011;5152;59.674;16.838;2023-11-21T03:52:23;6.17;;;4.70;;
10216;SDS011;5152;59.674;16.838;2023-11-21T03:54:50;15.97;;;9.97;;
10216;SDS011;5152;59.674;16.838;2023-11-21T03:57:17;12.87;;;7.33;;
10216;SDS011;5152;59.674;16.838;2023-11-21T03:59:44;8.47;;;5.40;;
10216;SDS011;5152;59.674;16.838;2023-11-21T04:02:11;9.57;;;5.23;;
10216;SDS011;5152;59.674;16.838;2023-11-21T04:04:37;8.93;;;5.93;;
10216;SDS011;5152;59.674;16.838;2023-11-21T04:07:06;5.93;;;3.87;;
10216;SDS011;5152;59.674;16.838;2023-11-21T04:09:32;4.83;;;3.70;;
10216;SDS011;5152;59.674;16.838;2023-11-21T04:12:01;6.10;;;3.87;;
10216;SDS011;5152;59.674;16.838;2023-11-21T04:14:28;6.93;;;4.03;;
10216;SDS011;5152;59.674;16.838;2023-11-21T04:16:55;6.20;;;4.07;;
10216;SDS011;5152;59.674;16.838;2023-11-21T04:19:21;12.33;;;8.03;;
10216;SDS011;5152;59.674;16.838;2023-11-21T04:21:48;9.43;;;6.43;;
10216;SDS011;5152;59.674;16.838;2023-11-21T04:24:17;6.87;;;4.40;;
10216;SDS011;5152;59.674;16.838;2023-11-21T04:26:44;31.03;;;18.43;;
10216;SDS011;5152;59.674;16.838;2023-11-21T04:29:11;13.17;;;8.17;;
10216;SDS011;5152;59.674;16.838;2023-11-21T04:31:37;21.07;;;10.73;;
10216;SDS011;5152;59.674;16.838;2023-11-21T04:34:04;20.73;;;12.20;;
10216;SDS011;5152;59.674;16.838;2023-11-21T04:36:31;27.40;;;16.87;;
10216;SDS011;5152;59.674;16.838;2023-11-21T04:38:58;18.07;;;11.73;;
10216;SDS011;5152;59.674;16.838;2023-11-21T04:41:26;42.67;;;26.17;;
10216;SDS011;5152;59.674;16.838;2023-11-21T04:43:53;24.93;;;15.03;;
10216;SDS011;5152;59.674;16.838;2023-11-21T04:46:20;7.17;;;4.53;;
10216;SDS011;5152;59.674;16.838;2023-11-21T04:48:46;6.50;;;4.17;;
10216;SDS011;5152;59.674;16.838;2023-11-21T04:51:13;6.83;;;4.17;;
10216;SDS011;5152;59.674;16.838;2023-11-21T04:53:40;7.83;;;4.17;;
10216;SDS011;5152;59.674;16.838;2023-11-21T04:56:07;6.27;;;4.30;;
10216;SDS011;5152;59.674;16.838;2023-11-21T04:58:36;9.67;;;5.63;;
10216;SDS011;5152;59.674;16.838;2023-11-21T05:01:03;5.57;;;4.00;;
10216;SDS011;5152;59.674;16.838;2023-11-21T05:03:30;5.70;;;3.70;;
10216;SDS011;5152;59.674;16.838;2023-11-21T05:05:57;8.23;;;4.20;;
10216;SDS011;5152;59.674;16.838;2023-11-21T05:08:24;10.77;;;6.87;;
10216;SDS011;5152;59.674;16.838;2023-11-21T05:10:52;15.87;;;9.63;;
10216;SDS011;5152;59.674;16.838;2023-11-21T05:13:20;13.07;;;5.23;;
10216;SDS011;5152;59.674;16.838;2023-11-21T05:15:48;7.63;;;4.67;;
10216;SDS011;5152;59.674;16.838;2023-11-21T05:18:16;8.53;;;4.70;;
10216;SDS011;5152;59.674;16.838;2023-11-21T05:20:42;8.93;;;4.60;;
10216;SDS011;5152;59.674;16.838;2023-11-21T05:23:09;10.33;;;5.87;;
10216;SDS011;5152;59.674;16.838;2023-11-21T05:25:36;16.40;;;12.27;;
10216;SDS011;5152;59.674;16.838;2023-11-21T05:28:03;9.70;;;5.40;;
10216;SDS011;5152;59.674;16.838;2023-11-21T05:30:31;7.93;;;4.47;;
10216;SDS011;5152;59.674;16.838;2023-11-21T05:32:59;8.43;;;5.77;;
10216;SDS011;5152;59.674;16.838;2023-11-21T05:35:26;4.83;;;3.53;;
10216;SDS011;5152;59.674;16.838;2023-11-21T05:37:53;3.47;;;2.90;;
10216;SDS011;5152;59.674;16.838;2023-11-21T05:40:20;3.33;;;2.70;;
10216;SDS011;5152;59.674;16.838;2023-11-21T05:42:47;7.97;;;2.90;;
10216;SDS011;5152;59.674;16.838;2023-11-21T05:45:17;5.00;;;3.23;;
10216;SDS011;5152;59.674;16.838;2023-11-21T05:47:44;4.53;;;3.50;;
10216;SDS011;5152;59.674;16.838;2023-11-21T05:50:14;9.03;;;5.83;;
10216;SDS011;5152;59.674;16.838;2023-11-21T05:52:41;8.13;;;6.17;;
10216;SDS011;5152;59.674;16.838;2023-11-21T05:55:08;3.83;;;3.43;;
10216;SDS011;5152;59.674;16.838;2023-11-21T05:57:36;5.87;;;2.93;;
10216;SDS011;5152;59.674;16.838;2023-11-21T06:00:04;4.83;;;3.87;;
10216;SDS011;5152;59.674;16.838;2023-11-21T06:02:36;9.13;;;4.30;;
10216;SDS011;5152;59.674;16.838;2023-11-21T06:05:04;2.87;;;2.40;;
10216;SDS011;5152;59.674;16.838;2023-11-21T06:07:33;2.57;;;2.20;;
10216;SDS011;5152;59.674;16.838;2023-11-21T06:10:00;3.70;;;2.90;;
10216;SDS011;5152;59.674;16.838;2023-11-21T06:12:31;7.10;;;4.73;;
10216;SDS011;5152;59.674;16.838;2023-11-21T06:15:00;9.83;;;7.40;;
10216;SDS011;5152;59.674;16.838;2023-11-21T06:17:29;6.33;;;4.23;;
10216;SDS011;5152;59.674;16.838;2023-11-21T06:19:56;2.20;;;1.63;;
10216;SDS011;5152;59.674;16.838;2023-11-21T06:22:23;4.00;;;2.97;;
10216;SDS011;5152;59.674;16.838;2023-11-21T06:24:51;8.60;;;3.33;;
10216;SDS011;5152;59.674;16.838;2023-11-21T06:27:18;3.50;;;2.97;;
10216;SDS011;5152;59.674;16.838;2023-11-21T06:29:46;6.27;;;3.50;;
10216;SDS011;5152;59.674;16.838;2023-11-21T06:32:13;5.03;;;2.67;;
10216;SDS011;5152;59.674;16.838;2023-11-21T06:34:41;4.83;;;2.90;;
10216;SDS011;5152;59.674;16.838;2023-11-21T06:37:08;4.63;;;2.70;;
10216;SDS011;5152;59.674;16.838;2023-11-21T06:39:36;4.30;;;2.73;;
10216;SDS011;5152;59.674;16.838;2023-11-21T06:42:05;2.97;;;2.57;;
10216;SDS011;5152;59.674;16.838;2023-11-21T06:44:32;4.30;;;2.53;;
10216;SDS011;5152;59.674;16.838;2023-11-21T06:47:00;4.33;;;2.73;;
10216;SDS011;5152;59.674;16.838;2023-11-21T06:49:27;4.83;;;2.97;;
10216;SDS011;5152;59.674;16.838;2023-11-21T06:51:54;6.37;;;3.70;;
10216;SDS011;5152;59.674;16.838;2023-11-21T06:54:21;6.60;;;4.13;;
10216;SDS011;5152;59.674;16.838;2023-11-21T06:56:48;7.20;;;3.43;;
10216;SDS011;5152;59.674;16.838;2023-11-21T06:59:16;5.53;;;3.67;;
10216;SDS011;5152;59.674;16.838;2023-11-21T07:01:43;9.37;;;3.50;;
10216;SDS011;5152;59.674;16.838;2023-11-21T07:04:10;6.17;;;3.33;;
10216;SDS011;5152;59.674;16.838;2023-11-21T07:06:37;5.67;;;3.40;;
10216;SDS011;5152;59.674;16.838;2023-11-21T07:09:04;5.83;;;2.93;;
10216;SDS011;5152;59.674;16.838;2023-11-21T07:11:30;4.13;;;2.80;;
10216;SDS011;5152;59.674;16.838;2023-11-21T07:13:58;7.13;;;2.83;;
10216;SDS011;5152;59.674;16.838;2023-11-21T07:16:26;6.83;;;4.10;;
10216;SDS011;5152;59.674;16.838;2023-11-21T07:18:53;7.47;;;3.30;;
10216;SDS011;5152;59.674;16.838;2023-11-21T07:21:20;5.10;;;4.10;;
10216;SDS011;5152;59.674;16.838;2023-11-21T07:23:47;3.23;;;2.83;;
10216;SDS011;5152;59.674;16.838;2023-11-21T07:26:13;7.57;;;3.00;;
10216;SDS011;5152;59.674;16.838;2023-11-21T07:28:40;5.57;;;3.63;;
10216;SDS011;5152;59.674;16.838;2023-11-21T07:31:07;4.40;;;3.57;;
10216;SDS011;5152;59.674;16.838;2023-11-21T07:33:35;6.47;;;3.13;;
10216;SDS011;5152;59.674;16.838;2023-11-21T07:36:04;3.37;;;2.83;;
10216;SDS011;5152;59.674;16.838;2023-11-21T07:38:31;4.57;;;2.37;;
10216;SDS011;5152;59.674;16.838;2023-11-21T07:40:59;9.93;;;3.07;;
10216;SDS011;5152;59.674;16.838;2023-11-21T07:43:26;4.63;;;2.43;;
10216;SDS011;5152;59.674;16.838;2023-11-21T07:45:59;6.30;;;2.53;;
10216;SDS011;5152;59.674;16.838;2023-11-21T07:48:27;5.07;;;3.03;;
10216;SDS011;5152;59.674;16.838;2023-11-21T07:50:56;5.60;;;3.30;;
10216;SDS011;5152;59.674;16.838;2023-11-21T07:53:23;7.13;;;3.40;;
10216;SDS011;5152;59.674;16.838;2023-11-21T07:55:50;9.00;;;4.10;;
10216;SDS011;5152;59.674;16.838;2023-11-21T07:58:17;8.80;;;4.63;;
10216;SDS011;5152;59.674;16.838;2023-11-21T08:00:44;6.40;;;4.13;;
10216;SDS011;5152;59.674;16.838;2023-11-21T08:03:12;5.20;;;3.33;;
10216;SDS011;5152;59.674;16.838;2023-11-21T08:05:39;4.43;;;3.47;;
10216;SDS011;5152;59.674;16.838;2023-11-21T08:08:08;9.27;;;5.50;;
10216;SDS011;5152;59.674;16.838;2023-11-21T08:10:35;4.57;;;3.50;;
10216;SDS011;5152;59.674;16.838;2023-11-21T08:13:02;4.43;;;3.07;;
10216;SDS011;5152;59.674;16.838;2023-11-21T08:15:28;4.70;;;3.30;;
10216;SDS011;5152;59.674;16.838;2023-11-21T08:17:57;9.47;;;5.93;;
10216;SDS011;5152;59.674;16.838;2023-11-21T08:20:24;10.40;;;7.37;;
10216;SDS011;5152;59.674;16.838;2023-11-21T08:22:50;7.87;;;6.83;;
10216;SDS011;5152;59.674;16.838;2023-11-21T08:25:19;3.60;;;2.87;;
10216;SDS011;5152;59.674;16.838;2023-11-21T08:27:47;6.87;;;4.57;;
10216;SDS011;5152;59.674;16.838;2023-11-21T08:30:14;7.13;;;5.13;;
10216;SDS011;5152;59.674;16.838;2023-11-21T08:32:42;5.50;;;3.40;;
10216;SDS011;5152;59.674;16.838;2023-11-21T08:35:08;10.57;;;6.27;;
10216;SDS011;5152;59.674;16.838;2023-11-21T08:37:37;9.07;;;7.07;;
10216;SDS011;5152;59.674;16.838;2023-11-21T08:40:04;12.27;;;9.27;;
10216;SDS011;5152;59.674;16.838;2023-11-21T08:42:35;6.27;;;5.10;;
10216;SDS011;5152;59.674;16.838;2023-11-21T08:45:02;5.77;;;3.07;;
10216;SDS011;5152;59.674;16.838;2023-11-21T08:47:31;4.10;;;3.20;;
10216;SDS011;5152;59.674;16.838;2023-11-21T08:49:57;5.00;;;2.77;;
10216;SDS011;5152;59.674;16.838;2023-11-21T08:52:24;5.47;;;3.33;;
10216;SDS011;5152;59.674;16.838;2023-11-21T08:54:51;11.03;;;6.87;;
10216;SDS011;5152;59.674;16.838;2023-11-21T08:57:21;5.23;;;2.97;;
10216;SDS011;5152;59.674;16.838;2023-11-21T08:59:49;6.07;;;4.30;;
10216;SDS011;5152;59.674;16.838;2023-11-21T09:02:20;6.37;;;3.90;;
10216;SDS011;5152;59.674;16.838;2023-11-21T09:04:48;5.87;;;4.70;;
10216;SDS011;5152;59.674;16.838;2023-11-21T09:07:16;8.83;;;6.33;;
10216;SDS011;5152;59.674;16.838;2023-11-21T09:09:45;13.47;;;8.30;;
10216;SDS011;5152;59.674;16.838;2023-11-21T09:12:12;13.60;;;8.40;;
10216;SDS011;5152;59.674;16.838;2023-11-21T09:14:39;8.53;;;5.03;;
10216;SDS011;5152;59.674;16.838;2023-11-21T09:17:07;7.50;;;5.80;;
10216;SDS011;5152;59.674;16.838;2023-11-21T09:19:36;12.40;;;9.10;;
10216;SDS011;5152;59.674;16.838;2023-11-21T09:22:03;10.37;;;7.90;;
10216;SDS011;5152;59.674;16.838;2023-11-21T09:24:31;7.73;;;6.33;;
10216;SDS011;5152;59.674;16.838;2023-11-21T09:26:57;7.73;;;5.47;;
10216;SDS011;5152;59.674;16.838;2023-11-21T09:29:25;6.73;;;4.53;;
10216;SDS011;5152;59.674;16.838;2023-11-21T09:31:52;7.83;;;4.70;;
10216;SDS011;5152;59.674;16.838;2023-11-21T09:34:21;5.77;;;4.03;;
10216;SDS011;5152;59.674;16.838;2023-11-21T09:36:48;7.17;;;4.77;;
10216;SDS011;5152;59.674;16.838;2023-11-21T09:39:15;23.00;;;17.93;;
10216;SDS011;5152;59.674;16.838;2023-11-21T09:41:43;8.87;;;7.47;;
10216;SDS011;5152;59.674;16.838;2023-11-21T09:44:13;7.47;;;6.67;;
10216;SDS011;5152;59.674;16.838;2023-11-21T09:46:44;7.87;;;6.83;;
10216;SDS011;5152;59.674;16.838;2023-11-21T09:49:14;7.00;;;4.80;;
10216;SDS011;5152;59.674;16.838;2023-11-21T09:51:43;6.70;;;3.80;;
10216;SDS011;5152;59.674;16.838;2023-11-21T09:54:10;4.73;;;3.40;;
10216;SDS011;5152;59.674;16.838;2023-11-21T09:56:37;7.50;;;5.37;;
10216;SDS011;5152;59.674;16.838;2023-11-21T09:59:04;5.80;;;3.93;;
10216;SDS011;5152;59.674;16.838;2023-11-21T10:01:36;6.17;;;4.43;;
10216;SDS011;5152;59.674;16.838;2023-11-21T10:04:04;6.73;;;5.40;;
10216;SDS011;5152;59.674;16.838;2023-11-21T10:06:36;8.50;;;5.10;;
10216;SDS011;5152;59.674;16.838;2023-11-21T10:09:06;5.17;;;4.03;;
10216;SDS011;5152;59.674;16.838;2023-11-21T10:11:37;4.63;;;3.97;;
10216;SDS011;5152;59.674;16.838;2023-11-21T10:14:06;4.03;;;3.43;;
10216;SDS011;5152;59.674;16.838;2023-11-21T10:16:35;5.53;;;3.73;;
10216;SDS011;5152;59.674;16.838;2023-11-21T10:19:04;7.20;;;4.40;;
10216;SDS011;5152;59.674;16.838;2023-11-21T10:21:32;6.83;;;5.27;;
10216;SDS011;5152;59.674;16.838;2023-11-21T10:23:59;6.30;;;4.43;;
10216;SDS011;5152;59.674;16.838;2023-11-21T10:26:27;8.73;;;5.40;;
10216;SDS011;5152;59.674;16.838;2023-11-21T10:28:57;6.90;;;5.03;;
10216;SDS011;5152;59.674;16.838;2023-11-21T10:31:24;4.33;;;3.27;;
10216;SDS011;5152;59.674;16.838;2023-11-21T10:33:51;6.67;;;4.33;;
10216;SDS011;5152;59.674;16.838;2023-11-21T10:36:27;9.97;;;5.83;;
10216;SDS011;5152;59.674;16.838;2023-11-21T10:38:54;6.53;;;4.20;;
10216;SDS011;5152;59.674;16.838;2023-11-21T10:41:22;7.03;;;5.50;;
10216;SDS011;5152;59.674;16.838;2023-11-21T10:43:54;7.67;;;4.70;;
10216;SDS011;5152;59.674;16.838;2023-11-21T10:46:22;7.57;;;5.57;;
10216;SDS011;5152;59.674;16.838;2023-11-21T10:48:52;6.20;;;4.77;;
10216;SDS011;5152;59.674;16.838;2023-11-21T10:51:21;6.47;;;5.07;;
10216;SDS011;5152;59.674;16.838;2023-11-21T10:53:49;10.50;;;7.60;;
10216;SDS011;5152;59.674;16.838;2023-11-21T10:56:16;7.83;;;4.97;;
10216;SDS011;5152;59.674;16.838;2023-11-21T10:58:46;7.47;;;5.40;;
10216;SDS011;5152;59.674;16.838;2023-11-21T11:01:15;6.27;;;5.17;;
10216;SDS011;5152;59.674;16.838;2023-11-21T11:03:44;5.50;;;4.03;;
10216;SDS011;5152;59.674;16.838;2023-11-21T11:06:11;8.10;;;5.03;;
10216;SDS011;5152;59.674;16.838;2023-11-21T11:08:38;8.23;;;5.23;;
10216;SDS011;5152;59.674;16.838;2023-11-21T11:11:06;7.27;;;5.40;;
10216;SDS011;5152;59.674;16.838;2023-11-21T11:13:34;11.77;;;8.37;;
10216;SDS011;5152;59.674;16.838;2023-11-21T11:16:02;9.43;;;5.33;;
10216;SDS011;5152;59.674;16.838;2023-11-21T11:18:33;6.37;;;4.83;;
10216;SDS011;5152;59.674;16.838;2023-11-21T11:21:01;7.87;;;5.33;;
10216;SDS011;5152;59.674;16.838;2023-11-21T11:23:39;7.77;;;5.90;;
10216;SDS011;5152;59.674;16.838;2023-11-21T11:26:16;7.63;;;4.80;;
10216;SDS011;5152;59.674;16.838;2023-11-21T11:28:55;9.20;;;5.30;;
10216;SDS011;5152;59.674;16.838;2023-11-21T11:31:28;6.00;;;4.03;;
10216;SDS011;5152;59.674;16.838;2023-11-21T11:34:08;10.17;;;6.27;;
10216;SDS011;5152;59.674;16.838;2023-11-21T11:36:41;5.47;;;3.80;;
10216;SDS011;5152;59.674;16.838;2023-11-21T11:41:56;10.87;;;5.00;;
10216;SDS011;5152;59.674;16.838;2023-11-21T11:47:25;9.13;;;6.93;;
10216;SDS011;5152;59.674;16.838;2023-11-21T11:50:00;13.43;;;5.87;;
10216;SDS011;5152;59.674;16.838;2023-11-21T11:52:33;4.23;;;2.87;;
10216;SDS011;5152;59.674;16.838;2023-11-21T11:55:04;4.63;;;3.17;;
10216;SDS011;5152;59.674;16.838;2023-11-21T11:57:32;6.60;;;3.90;;
10216;SDS011;5152;59.674;16.838;2023-11-21T12:03:02;6.63;;;4.40;;
10216;SDS011;5152;59.674;16.838;2023-11-21T12:05:32;8.33;;;4.13;;
10216;SDS011;5152;59.674;16.838;2023-11-21T12:08:01;9.33;;;6.13;;
10216;SDS011;5152;59.674;16.838;2023-11-21T12:10:30;5.97;;;4.40;;
10216;SDS011;5152;59.674;16.838;2023-11-21T12:12:58;8.17;;;5.23;;
10216;SDS011;5152;59.674;16.838;2023-11-21T12:15:26;7.73;;;4.90;;
10216;SDS011;5152;59.674;16.838;2023-11-21T12:17:55;14.47;;;7.87;;
10216;SDS011;5152;59.674;16.838;2023-11-21T12:20:22;10.17;;;5.93;;
10216;SDS011;5152;59.674;16.838;2023-11-21T12:22:52;12.70;;;7.03;;
10216;SDS011;5152;59.674;16.838;2023-11-21T12:25:19;10.30;;;6.30;;
10216;SDS011;5152;59.674;16.838;2023-11-21T12:27:47;9.83;;;6.80;;
10216;SDS011;5152;59.674;16.838;2023-11-21T12:30:16;8.27;;;4.90;;
10216;SDS011;5152;59.674;16.838;2023-11-21T12:32:44;8.47;;;4.77;;
10216;SDS011;5152;59.674;16.838;2023-11-21T12:35:12;8.63;;;4.87;;
10216;SDS011;5152;59.674;16.838;2023-11-21T12:37:39;7.57;;;4.77;;
10216;SDS011;5152;59.674;16.838;2023-11-21T12:40:09;9.23;;;5.20;;
10216;SDS011;5152;59.674;16.838;2023-11-21T12:42:40;9.60;;;5.53;;
10216;SDS011;5152;59.674;16.838;2023-11-21T12:45:18;7.10;;;4.97;;
10216;SDS011;5152;59.674;16.838;2023-11-21T12:47:45;10.70;;;6.27;;
10216;SDS011;5152;59.674;16.838;2023-11-21T12:50:13;7.83;;;5.43;;
10216;SDS011;5152;59.674;16.838;2023-11-21T12:52:44;8.80;;;5.33;;
10216;SDS011;5152;59.674;16.838;2023-11-21T12:55:14;7.10;;;4.27;;
10216;SDS011;5152;59.674;16.838;2023-11-21T12:57:42;6.53;;;3.97;;
10216;SDS011;5152;59.674;16.838;2023-11-21T13:00:10;11.50;;;5.93;;
10216;SDS011;5152;59.674;16.838;2023-11-21T13:02:41;8.80;;;5.97;;
10216;SDS011;5152;59.674;16.838;2023-11-21T13:05:08;7.30;;;5.23;;
10216;SDS011;5152;59.674;16.838;2023-11-21T13:07:46;7.07;;;5.00;;
10216;SDS011;5152;59.674;16.838;2023-11-21T13:10:15;7.57;;;5.27;;
10216;SDS011;5152;59.674;16.838;2023-11-21T13:12:43;5.67;;;4.47;;
10216;SDS011;5152;59.674;16.838;2023-11-21T13:15:13;5.80;;;3.83;;
10216;SDS011;5152;59.674;16.838;2023-11-21T13:17:42;5.67;;;3.73;;
10216;SDS011;5152;59.674;16.838;2023-11-21T13:20:10;4.10;;;3.47;;
10216;SDS011;5152;59.674;16.838;2023-11-21T13:22:44;4.10;;;3.20;;
10216;SDS011;5152;59.674;16.838;2023-11-21T13:25:15;5.03;;;3.60;;
10216;SDS011;5152;59.674;16.838;2023-11-21T13:27:43;7.40;;;2.73;;
10216;SDS011;5152;59.674;16.838;2023-11-21T13:30:11;4.93;;;3.30;;
10216;SDS011;5152;59.674;16.838;2023-11-21T13:32:41;8.80;;;5.17;;
10216;SDS011;5152;59.674;16.838;2023-11-21T13:35:09;9.03;;;5.57;;
10216;SDS011;5152;59.674;16.838;2023-11-21T13:37:46;6.63;;;5.20;;
10216;SDS011;5152;59.674;16.838;2023-11-21T13:40:16;6.17;;;4.50;;
10216;SDS011;5152;59.674;16.838;2023-11-21T13:42:47;9.13;;;5.50;;
10216;SDS011;5152;59.674;16.838;2023-11-21T13:45:18;6.03;;;4.23;;
10216;SDS011;5152;59.674;16.838;2023-11-21T13:47:48;5.20;;;3.13;;
10216;SDS011;5152;59.674;16.838;2023-11-21T13:50:16;5.57;;;3.07;;
10216;SDS011;5152;59.674;16.838;2023-11-21T13:52:48;4.97;;;3.80;;
10216;SDS011;5152;59.674;16.838;2023-11-21T13:55:17;7.20;;;4.70;;
10216;SDS011;5152;59.674;16.838;2023-11-21T13:57:44;7.63;;;5.17;;
10216;SDS011;5152;59.674;16.838;2023-11-21T14:00:15;6.13;;;3.80;;
10216;SDS011;5152;59.674;16.838;2023-11-21T14:02:57;32.67;;;22.70;;
10216;SDS011;5152;59.674;16.838;2023-11-21T14:05:26;10.67;;;8.97;;
10216;SDS011;5152;59.674;16.838;2023-11-21T14:07:55;6.63;;;5.20;;
10216;SDS011;5152;59.674;16.838;2023-11-21T14:10:29;6.00;;;4.43;;
10216;SDS011;5152;59.674;16.838;2023-11-21T14:13:02;8.10;;;4.30;;
10216;SDS011;5152;59.674;16.838;2023-11-21T14:15:30;6.70;;;4.13;;
10216;SDS011;5152;59.674;16.838;2023-11-21T14:17:58;8.60;;;5.17;;
10216;SDS011;5152;59.674;16.838;2023-11-21T14:20:27;9.73;;;5.73;;
10216;SDS011;5152;59.674;16.838;2023-11-21T14:22:55;10.10;;;6.57;;
10216;SDS011;5152;59.674;16.838;2023-11-21T14:25:22;12.43;;;5.87;;
10216;SDS011;5152;59.674;16.838;2023-11-21T14:27:50;8.60;;;4.70;;
10216;SDS011;5152;59.674;16.838;2023-11-21T14:30:17;6.90;;;3.90;;
10216;SDS011;5152;59.674;16.838;2023-11-21T14:32:47;8.30;;;4.77;;
10216;SDS011;5152;59.674;16.838;2023-11-21T14:35:14;10.10;;;5.40;;
10216;SDS011;5152;59.674;16.838;2023-11-21T14:37:43;6.60;;;4.00;;
10216;SDS011;5152;59.674;16.838;2023-11-21T14:40:11;7.70;;;3.77;;
10216;SDS011;5152;59.674;16.838;2023-11-21T14:42:41;11.93;;;5.63;;
10216;SDS011;5152;59.674;16.838;2023-11-21T14:45:10;11.40;;;6.07;;
10216;SDS011;5152;59.674;16.838;2023-11-21T14:47:38;8.50;;;6.27;;
10216;SDS011;5152;59.674;16.838;2023-11-21T14:50:09;10.20;;;5.87;;
10216;SDS011;5152;59.674;16.838;2023-11-21T14:53:06;7.67;;;4.30;;
10216;SDS011;5152;59.674;16.838;2023-11-21T14:55:34;7.57;;;4.93;;
10216;SDS011;5152;59.674;16.838;2023-11-21T14:58:17;7.73;;;5.30;;